Time;durP1;ratioP1;P1;durP2;ratioP2;P2;SDS_P1;SDS_P2;PMS_P1;PMS_P2;Temp;Humidity;BMP_temperature;BMP_pressure;BME280_temperature;BME280_humidity;BME280_pressure;Samples;Min_cycle;Max_cycle;Signal;HPM_P1;HPM_P2
2022/09/10 00:01:32;;;;;;;1.98;0.40;;;;;;;;;;4998204;28;20034;-87
2022/09/10 00:03:59;;;;;;;1.40;0.40;;;;;;;;;;4981816;28;20057;-88
2022/09/10 00:06:27;;;;;;;1.42;0.43;;;;;;;;;;4998213;28;20060;-89
2022/09/10 00:08:57;;;;;;;1.55;0.40;;;;;;;;;;5014444;28;20045;-87
2022/09/10 00:11:25;;;;;;;1.20;0.45;;;;;;;;;;4998908;28;20491;-88
2022/09/10 00:13:52;;;;;;;1.92;0.80;;;;;;;;;;4982046;28;20034;-90
2022/09/10 00:16:19;;;;;;;1.85;0.30;;;;;;;;;;4982151;28;20057;-89
2022/09/10 00:18:46;;;;;;;1.75;0.40;;;;;;;;;;4997903;28;20044;-88
2022/09/10 00:21:16;;;;;;;1.15;0.20;;;;;;;;;;4981463;28;20064;-87
2022/09/10 00:23:44;;;;;;;1.52;0.40;;;;;;;;;;4998215;28;20088;-87
2022/09/10 00:26:26;;;;;;;1.95;0.50;;;;;;;;;;4981526;28;20029;-87
2022/09/10 00:28:55;;;;;;;1.63;0.30;;;;;;;;;;4981788;28;20408;-87
2022/09/10 00:31:24;;;;;;;1.80;0.30;;;;;;;;;;5013938;28;20126;-88
2022/09/10 00:33:49;;;;;;;2.70;0.70;;;;;;;;;;4981346;28;20037;-88
2022/09/10 00:36:23;;;;;;;2.28;0.60;;;;;;;;;;4981115;28;20084;-88
2022/09/10 00:38:50;;;;;;;1.45;0.25;;;;;;;;;;4997959;28;20228;-86
2022/09/10 00:41:17;;;;;;;1.27;0.47;;;;;;;;;;4997559;28;20408;-87
2022/09/10 00:44:02;;;;;;;1.20;0.20;;;;;;;;;;4998121;28;20057;-88
2022/09/10 00:46:42;;;;;;;1.63;0.40;;;;;;;;;;5015093;28;20041;-87
2022/09/10 00:49:16;;;;;;;1.10;0.30;;;;;;;;;;5001433;28;20057;-88
2022/09/10 00:51:43;;;;;;;1.67;0.57;;;;;;;;;;5001532;28;20037;-88
2022/09/10 00:54:10;;;;;;;1.77;0.40;;;;;;;;;;5017981;28;20463;-87
2022/09/10 00:56:35;;;;;;;3.20;0.52;;;;;;;;;;5017573;28;20028;-88
2022/09/10 00:59:02;;;;;;;1.85;0.32;;;;;;;;;;5018029;28;20045;-87
2022/09/10 01:01:32;;;;;;;1.58;0.28;;;;;;;;;;5017711;28;20038;-88
2022/09/10 01:03:58;;;;;;;2.20;0.57;;;;;;;;;;5001852;28;20514;-88
2022/09/10 01:06:27;;;;;;;2.22;0.32;;;;;;;;;;5017632;28;20048;-88
2022/09/10 01:08:56;;;;;;;1.23;0.30;;;;;;;;;;5017718;28;20044;-88
2022/09/10 01:11:25;;;;;;;1.00;0.40;;;;;;;;;;5017508;28;20029;-88
2022/09/10 01:14:15;;;;;;;2.95;0.57;;;;;;;;;;5017363;28;20087;-87
2022/09/10 01:16:50;;;;;;;1.77;0.30;;;;;;;;;;5017717;28;20119;-87
2022/09/10 01:19:19;;;;;;;1.40;0.30;;;;;;;;;;5017414;28;21046;-88
2022/09/10 01:22:01;;;;;;;3.20;0.63;;;;;;;;;;5017438;28;20076;-87
2022/09/10 01:24:51;;;;;;;2.08;0.30;;;;;;;;;;5033331;28;20407;-88
2022/09/10 01:28:05;;;;;;;1.70;0.63;;;;;;;;;;5017597;28;20032;-88
2022/09/10 01:30:33;;;;;;;1.85;0.40;;;;;;;;;;5012540;28;20049;-88
2022/09/10 01:33:21;;;;;;;1.90;0.50;;;;;;;;;;5016754;28;20030;-88
2022/09/10 01:35:50;;;;;;;1.20;0.20;;;;;;;;;;5016965;28;20124;-87
2022/09/10 01:38:26;;;;;;;1.58;0.25;;;;;;;;;;5013441;28;20117;-87
2022/09/10 01:40:53;;;;;;;1.67;0.50;;;;;;;;;;4997267;28;20034;-88
2022/09/10 01:43:18;;;;;;;2.83;0.50;;;;;;;;;;4997531;28;20033;-87
2022/09/10 01:45:49;;;;;;;1.27;0.30;;;;;;;;;;4981114;28;20120;-87
2022/09/10 01:48:46;;;;;;;1.77;0.30;;;;;;;;;;5013887;28;20465;-87
2022/09/10 01:51:16;;;;;;;2.78;0.60;;;;;;;;;;5016539;28;20268;-86
2022/09/10 01:53:58;;;;;;;1.60;0.40;;;;;;;;;;5016679;28;20546;-87
2022/09/10 01:56:34;;;;;;;;;;;;;;;;;;5016927;28;20034;-87
2022/09/10 01:59:13;;;;;;;2.40;0.43;;;;;;;;;;5015099;28;19908;-88
2022/09/10 02:01:49;;;;;;;2.35;0.98;;;;;;;;;;5014617;28;20160;-88
2022/09/10 02:04:14;;;;;;;0.82;0.22;;;;;;;;;;5015972;28;20033;-86
2022/09/10 02:06:43;;;;;;;0.88;0.40;;;;;;;;;;5033222;28;20036;-88
2022/09/10 02:09:09;;;;;;;1.83;0.45;;;;;;;;;;4999792;28;20041;-88
2022/09/10 02:11:53;;;;;;;2.17;0.63;;;;;;;;;;5016532;28;20033;-87
2022/09/10 02:14:20;;;;;;;1.05;0.30;;;;;;;;;;5015951;28;20488;-87
2022/09/10 02:16:50;;;;;;;1.30;0.20;;;;;;;;;;5000301;28;20033;-88
2022/09/10 02:19:17;;;;;;;1.00;0.20;;;;;;;;;;5016325;28;20133;-87
2022/09/10 02:21:43;;;;;;;1.75;0.50;;;;;;;;;;4999663;28;20042;-87
2022/09/10 02:24:09;;;;;;;2.28;0.60;;;;;;;;;;5015956;28;20075;-87
2022/09/10 02:26:37;;;;;;;2.70;0.50;;;;;;;;;;5032740;28;20029;-86
2022/09/10 02:29:02;;;;;;;1.42;0.43;;;;;;;;;;5015775;28;20029;-88
2022/09/10 02:31:29;;;;;;;1.90;0.55;;;;;;;;;;5015860;28;20041;-88
2022/09/10 02:33:55;;;;;;;2.60;0.40;;;;;;;;;;5032289;28;20041;-88
2022/09/10 02:36:24;;;;;;;1.15;0.28;;;;;;;;;;5032226;28;20037;-87
2022/09/10 02:38:52;;;;;;;1.77;0.43;;;;;;;;;;5016149;28;20026;-88
2022/09/10 02:41:24;;;;;;;0.90;0.25;;;;;;;;;;4999329;28;20044;-87
2022/09/10 02:43:51;;;;;;;1.33;0.43;;;;;;;;;;4999822;28;20040;-88
2022/09/10 02:46:19;;;;;;;1.65;0.40;;;;;;;;;;4999523;28;20381;-87
2022/09/10 02:48:44;;;;;;;1.80;0.82;;;;;;;;;;4999385;28;20116;-88
2022/09/10 02:51:11;;;;;;;1.88;0.40;;;;;;;;;;4999073;28;20034;-87
2022/09/10 02:53:39;;;;;;;2.78;0.40;;;;;;;;;;4999116;28;20041;-87
2022/09/10 02:56:07;;;;;;;2.20;0.40;;;;;;;;;;4999180;28;20036;-87
2022/09/10 02:58:33;;;;;;;1.88;0.73;;;;;;;;;;5015849;28;20107;-88
2022/09/10 03:01:06;;;;;;;1.25;0.30;;;;;;;;;;4998979;28;20041;-88
2022/09/10 03:03:32;;;;;;;;;;;;;;;;;;5015623;28;20128;-87
2022/09/10 03:05:58;;;;;;;2.67;0.40;;;;;;;;;;5014806;28;19992;-87
2022/09/10 03:08:25;;;;;;;2.20;0.50;;;;;;;;;;4999097;28;20042;-87
2022/09/10 03:10:52;;;;;;;1.60;0.40;;;;;;;;;;5015100;28;20534;-87
2022/09/10 03:13:19;;;;;;;2.22;0.63;;;;;;;;;;4998863;28;20519;-88
2022/09/10 03:15:47;;;;;;;1.55;0.38;;;;;;;;;;5031312;28;20087;-87
2022/09/10 03:18:14;;;;;;;1.30;0.40;;;;;;;;;;5031374;28;20087;-87
2022/09/10 03:20:40;;;;;;;0.95;0.30;;;;;;;;;;4998557;28;20040;-87
2022/09/10 03:23:06;;;;;;;0.95;0.20;;;;;;;;;;4998558;28;20040;-87
2022/09/10 03:25:33;;;;;;;2.30;0.40;;;;;;;;;;4998230;28;20029;-87
2022/09/10 03:27:59;;;;;;;1.90;0.40;;;;;;;;;;5014708;28;20090;-87
2022/09/10 03:30:27;;;;;;;2.17;0.73;;;;;;;;;;4998486;28;20434;-87
2022/09/10 03:32:56;;;;;;;1.83;0.50;;;;;;;;;;4998567;28;20091;-87
2022/09/10 03:35:22;;;;;;;0.85;0.20;;;;;;;;;;4998173;28;20030;-86
2022/09/10 03:37:48;;;;;;;1.30;0.52;;;;;;;;;;5014794;28;20530;-87
2022/09/10 03:40:15;;;;;;;1.67;0.28;;;;;;;;;;5014876;28;20037;-88
2022/09/10 03:42:43;;;;;;;0.85;0.30;;;;;;;;;;4998460;28;20072;-87
2022/09/10 03:45:09;;;;;;;1.52;0.30;;;;;;;;;;4998679;28;20065;-87
2022/09/10 03:47:37;;;;;;;2.20;0.73;;;;;;;;;;5011632;28;20066;-88
2022/09/10 03:50:06;;;;;;;0.80;0.22;;;;;;;;;;4978694;28;20026;-87
2022/09/10 03:52:32;;;;;;;1.08;0.30;;;;;;;;;;5010894;28;20391;-87
2022/09/10 03:54:59;;;;;;;2.75;0.50;;;;;;;;;;5011531;28;20037;-88
2022/09/10 03:57:25;;;;;;;1.55;0.30;;;;;;;;;;4978928;28;20065;-87
2022/09/10 03:59:51;;;;;;;1.55;0.30;;;;;;;;;;4994665;28;20030;-87
2022/09/10 04:02:16;;;;;;;1.13;0.30;;;;;;;;;;4995057;28;20073;-87
2022/09/10 04:04:42;;;;;;;1.33;0.20;;;;;;;;;;4978024;28;20073;-87
2022/09/10 04:07:09;;;;;;;2.20;0.30;;;;;;;;;;4994945;28;20536;-87
2022/09/10 04:09:35;;;;;;;1.70;0.47;;;;;;;;;;4994909;28;20030;-87
2022/09/10 04:12:02;;;;;;;2.80;0.40;;;;;;;;;;4978656;28;20033;-87
2022/09/10 04:14:30;;;;;;;1.33;0.57;;;;;;;;;;4978769;28;20033;-87
2022/09/10 04:16:57;;;;;;;1.63;0.30;;;;;;;;;;4978835;28;20404;-87
2022/09/10 04:19:26;;;;;;;1.20;0.30;;;;;;;;;;4978014;28;20038;-88
2022/09/10 04:21:52;;;;;;;1.98;0.40;;;;;;;;;;4997007;28;20034;-87
2022/09/10 04:24:19;;;;;;;1.35;0.30;;;;;;;;;;4982401;28;20566;-87
2022/09/10 04:26:44;;;;;;;1.60;0.30;;;;;;;;;;5015295;28;20041;-88
2022/09/10 04:29:10;;;;;;;1.33;0.35;;;;;;;;;;4998234;28;20038;-86
2022/09/10 04:31:37;;;;;;;1.67;0.40;;;;;;;;;;5015496;28;20037;-87
2022/09/10 04:34:04;;;;;;;0.90;0.30;;;;;;;;;;5017855;28;20554;-86
2022/09/10 04:36:32;;;;;;;1.23;0.30;;;;;;;;;;5001926;28;20087;-87
2022/09/10 04:38:58;;;;;;;1.20;0.50;;;;;;;;;;5034510;28;20034;-88
2022/09/10 04:41:24;;;;;;;1.38;0.30;;;;;;;;;;5017954;28;21843;-87
2022/09/10 04:43:51;;;;;;;1.77;0.28;;;;;;;;;;5001410;28;20033;-88
2022/09/10 04:46:18;;;;;;;1.25;0.30;;;;;;;;;;5017323;28;20036;-88
2022/09/10 04:48:46;;;;;;;2.47;0.50;;;;;;;;;;5001649;28;20035;-87
2022/09/10 04:51:12;;;;;;;1.23;0.30;;;;;;;;;;5001673;28;20037;-88
2022/09/10 04:53:39;;;;;;;1.08;0.50;;;;;;;;;;5001805;28;20037;-87
2022/09/10 04:56:05;;;;;;;1.23;0.32;;;;;;;;;;5001581;28;20033;-87
2022/09/10 04:58:32;;;;;;;1.80;0.40;;;;;;;;;;5001499;28;20399;-87
2022/09/10 05:00:57;;;;;;;1.42;0.63;;;;;;;;;;5001309;28;20033;-87
2022/09/10 05:03:23;;;;;;;1.77;0.35;;;;;;;;;;5017930;28;20049;-88
2022/09/10 05:05:49;;;;;;;1.00;0.30;;;;;;;;;;5017472;28;20108;-87
2022/09/10 05:08:15;;;;;;;1.75;0.70;;;;;;;;;;5002513;28;20135;-88
2022/09/10 05:10:44;;;;;;;2.35;0.70;;;;;;;;;;5007354;28;20033;-89
2022/09/10 05:13:09;;;;;;;2.00;0.77;;;;;;;;;;5020428;28;20041;-92
2022/09/10 05:15:40;;;;;;;2.30;0.30;;;;;;;;;;5004107;28;20068;-90
2022/09/10 05:18:07;;;;;;;2.15;0.65;;;;;;;;;;5018370;28;20029;-92
2022/09/10 05:20:34;;;;;;;6.50;0.70;;;;;;;;;;5021352;28;20040;-94
2022/09/10 05:23:00;;;;;;;4.53;0.60;;;;;;;;;;5001483;28;20095;-93
2022/09/10 05:25:27;;;;;;;5.03;0.80;;;;;;;;;;5001531;28;20037;-88
2022/09/10 05:27:52;;;;;;;7.57;0.93;;;;;;;;;;5017476;28;20080;-88
2022/09/10 05:30:20;;;;;;;4.07;0.90;;;;;;;;;;5013597;28;20037;-88
2022/09/10 05:32:46;;;;;;;2.17;0.90;;;;;;;;;;4997631;28;20030;-87
2022/09/10 05:35:13;;;;;;;8.48;1.33;;;;;;;;;;4997211;28;20042;-87
2022/09/10 05:37:39;;;;;;;7.50;1.08;;;;;;;;;;5005747;28;20125;-85
2022/09/10 05:40:07;;;;;;;5.50;1.00;;;;;;;;;;4980602;28;20072;-87
2022/09/10 05:42:34;;;;;;;10.35;1.67;;;;;;;;;;4981208;28;20404;-86
2022/09/10 05:45:00;;;;;;;7.70;1.25;;;;;;;;;;4997256;28;20030;-87
2022/09/10 05:47:27;;;;;;;4.55;0.82;;;;;;;;;;5003509;28;20045;-86
2022/09/10 05:49:52;;;;;;;4.53;0.90;;;;;;;;;;4997398;28;20038;-86
2022/09/10 05:52:18;;;;;;;6.50;1.35;;;;;;;;;;5013295;28;20088;-87
2022/09/10 05:54:43;;;;;;;3.17;1.00;;;;;;;;;;4996614;28;20073;-86
2022/09/10 05:57:10;;;;;;;3.00;0.90;;;;;;;;;;4996561;28;20044;-85
2022/09/10 05:59:36;;;;;;;11.20;1.85;;;;;;;;;;4996257;28;20092;-86
2022/09/10 06:02:02;;;;;;;5.90;1.08;;;;;;;;;;4996501;28;20088;-86
2022/09/10 06:04:27;;;;;;;3.60;1.30;;;;;;;;;;4980040;28;20042;-89
2022/09/10 06:06:55;;;;;;;9.50;1.45;;;;;;;;;;4980688;28;20218;-86
2022/09/10 06:09:21;;;;;;;5.43;1.10;;;;;;;;;;4997103;28;20025;-84
2022/09/10 06:11:47;;;;;;;6.90;1.80;;;;;;;;;;5016249;28;20044;-86
2022/09/10 06:14:16;;;;;;;5.68;1.45;;;;;;;;;;5002701;28;20058;-86
2022/09/10 06:16:41;;;;;;;7.65;1.63;;;;;;;;;;5000242;28;20030;-85
2022/09/10 06:19:07;;;;;;;10.48;1.38;;;;;;;;;;4980014;28;20049;-88
2022/09/10 06:21:33;;;;;;;10.68;1.70;;;;;;;;;;4996389;28;20029;-87
2022/09/10 06:24:00;;;;;;;7.38;2.67;;;;;;;;;;4979683;28;20045;-84
2022/09/10 06:26:26;;;;;;;6.75;2.70;;;;;;;;;;4995992;28;20114;-84
2022/09/10 06:28:54;;;;;;;10.55;3.67;;;;;;;;;;4996191;28;20034;-88
2022/09/10 06:31:22;;;;;;;10.52;3.05;;;;;;;;;;4999456;28;20071;-85
2022/09/10 06:33:49;;;;;;;11.68;3.70;;;;;;;;;;4999786;28;20045;-89
2022/09/10 06:36:17;;;;;;;16.70;4.72;;;;;;;;;;4983403;28;20575;-87
2022/09/10 06:38:44;;;;;;;10.48;3.50;;;;;;;;;;4983419;28;20052;-87
2022/09/10 06:41:11;;;;;;;14.68;3.95;;;;;;;;;;4983557;28;20026;-87
2022/09/10 06:43:37;;;;;;;11.23;3.05;;;;;;;;;;4998583;28;20510;-88
2022/09/10 06:46:12;;;;;;;12.75;3.42;;;;;;;;;;4982776;28;20025;-87
2022/09/10 06:48:38;;;;;;;9.82;2.55;;;;;;;;;;4980026;28;20401;-88
2022/09/10 06:51:04;;;;;;;7.85;2.83;;;;;;;;;;4963638;28;20038;-88
2022/09/10 06:53:32;;;;;;;10.40;3.38;;;;;;;;;;4979228;28;20064;-88
2022/09/10 06:55:58;;;;;;;7.95;2.83;;;;;;;;;;4996171;28;20030;-88
2022/09/10 06:58:23;;;;;;;9.35;2.78;;;;;;;;;;4995493;28;20038;-87
2022/09/10 07:00:49;;;;;;;6.13;2.63;;;;;;;;;;4963517;28;20036;-88
2022/09/10 07:03:15;;;;;;;3.80;2.10;;;;;;;;;;4979034;28;20443;-87
2022/09/10 07:05:41;;;;;;;4.90;2.25;;;;;;;;;;4979547;28;20113;-88
2022/09/10 07:08:08;;;;;;;6.78;2.45;;;;;;;;;;4979103;28;20092;-87
2022/09/10 07:10:34;;;;;;;4.90;2.30;;;;;;;;;;4979672;28;20057;-87
2022/09/10 07:13:00;;;;;;;8.05;2.45;;;;;;;;;;4979068;28;20485;-87
2022/09/10 07:15:26;;;;;;;8.20;2.30;;;;;;;;;;4979663;28;20026;-88
2022/09/10 07:17:52;;;;;;;6.60;1.92;;;;;;;;;;4979320;28;20038;-88
2022/09/10 07:20:18;;;;;;;6.20;1.83;;;;;;;;;;4995307;28;20072;-87
2022/09/10 07:22:43;;;;;;;6.63;1.73;;;;;;;;;;4978701;28;20124;-88
2022/09/10 07:25:09;;;;;;;6.05;1.98;;;;;;;;;;4963018;28;20042;-86
2022/09/10 07:27:34;;;;;;;10.00;2.05;;;;;;;;;;4978534;28;20045;-87
2022/09/10 07:29:59;;;;;;;6.13;1.67;;;;;;;;;;4982037;28;20029;-87
2022/09/10 07:32:25;;;;;;;8.82;2.03;;;;;;;;;;4998215;28;20037;-87
2022/09/10 07:34:51;;;;;;;4.75;1.50;;;;;;;;;;4997536;28;20033;-88
2022/09/10 07:37:16;;;;;;;5.93;1.70;;;;;;;;;;5014509;28;20071;-88
2022/09/10 07:39:42;;;;;;;5.10;1.50;;;;;;;;;;4998006;28;20030;-88
2022/09/10 07:42:09;;;;;;;4.88;1.92;;;;;;;;;;4997713;28;20486;-87
2022/09/10 07:44:34;;;;;;;2.67;0.98;;;;;;;;;;4998434;28;20075;-88
2022/09/10 07:47:02;;;;;;;4.10;0.95;;;;;;;;;;4994871;28;20029;-88
2022/09/10 07:49:28;;;;;;;3.55;1.30;;;;;;;;;;4978941;28;20034;-88
2022/09/10 07:51:53;;;;;;;4.03;1.45;;;;;;;;;;4978631;28;20514;-88
2022/09/10 07:54:19;;;;;;;3.30;1.20;;;;;;;;;;4994899;28;20038;-88
2022/09/10 07:56:45;;;;;;;4.40;1.15;;;;;;;;;;4977677;28;20029;-87
2022/09/10 07:59:12;;;;;;;2.50;1.13;;;;;;;;;;4962498;28;20087;-87
2022/09/10 08:01:37;;;;;;;5.75;1.33;;;;;;;;;;4994897;28;20038;-88
2022/09/10 08:04:04;;;;;;;2.80;1.23;;;;;;;;;;4994918;28;20186;-88
2022/09/10 08:06:31;;;;;;;3.55;1.50;;;;;;;;;;4978676;28;20042;-88
2022/09/10 08:08:56;;;;;;;4.88;1.30;;;;;;;;;;4994988;28;20034;-88
2022/09/10 08:11:21;;;;;;;4.50;1.08;;;;;;;;;;4962352;28;20045;-88
2022/09/10 08:13:48;;;;;;;4.78;1.25;;;;;;;;;;4978552;28;20046;-88
2022/09/10 08:16:18;;;;;;;3.33;1.05;;;;;;;;;;4962747;28;20120;-87
2022/09/10 08:18:46;;;;;;;3.88;1.10;;;;;;;;;;4994455;28;20038;-87
2022/09/10 08:21:12;;;;;;;2.33;0.88;;;;;;;;;;4963059;28;20057;-87
2022/09/10 08:23:40;;;;;;;5.45;1.48;;;;;;;;;;4978090;28;20042;-87
2022/09/10 08:26:07;;;;;;;2.00;0.98;;;;;;;;;;4994999;28;20049;-88
2022/09/10 08:28:33;;;;;;;3.53;1.25;;;;;;;;;;4962521;28;20079;-87
2022/09/10 08:31:03;;;;;;;4.40;1.40;;;;;;;;;;4973771;28;20056;-88
2022/09/10 08:33:30;;;;;;;3.70;1.40;;;;;;;;;;5014289;28;20052;-88
2022/09/10 08:35:59;;;;;;;4.18;1.08;;;;;;;;;;4997687;28;20030;-88
2022/09/10 08:38:33;;;;;;;4.63;1.40;;;;;;;;;;5010798;28;20038;-88
2022/09/10 08:41:00;;;;;;;3.35;1.30;;;;;;;;;;5010818;28;20141;-89
2022/09/10 08:43:31;;;;;;;3.35;0.93;;;;;;;;;;4994395;28;20045;-87
2022/09/10 08:45:57;;;;;;;3.00;1.50;;;;;;;;;;4994452;28;20030;-87
2022/09/10 08:48:23;;;;;;;4.78;1.10;;;;;;;;;;4997549;28;20030;-87
2022/09/10 08:50:56;;;;;;;21.23;16.63;;;;;;;;;;4997376;28;20522;-87
2022/09/10 08:53:50;;;;;;;5.97;4.13;;;;;;;;;;4997292;28;20484;-89
2022/09/10 08:56:18;;;;;;;8.18;5.05;;;;;;;;;;5013917;28;20038;-88
2022/09/10 08:59:05;;;;;;;11.98;8.57;;;;;;;;;;4997873;28;20038;-88
2022/09/10 09:01:39;;;;;;;19.60;10.38;;;;;;;;;;4997601;28;20125;-88
2022/09/10 09:04:10;;;;;;;16.23;11.63;;;;;;;;;;4998738;28;20033;-88
2022/09/10 09:06:47;;;;;;;20.00;11.80;;;;;;;;;;4998075;28;20116;-90
2022/09/10 09:09:13;;;;;;;15.93;9.73;;;;;;;;;;5001377;28;20044;-89
2022/09/10 09:11:57;;;;;;;13.68;10.10;;;;;;;;;;5001078;28;20105;-89
2022/09/10 09:14:42;;;;;;;12.75;8.52;;;;;;;;;;5001123;28;20026;-89
2022/09/10 09:17:37;;;;;;;15.02;8.65;;;;;;;;;;5001300;28;20049;-89
2022/09/10 09:20:24;;;;;;;14.60;8.00;;;;;;;;;;5017561;28;20087;-89
2022/09/10 09:22:54;;;;;;;11.98;7.50;;;;;;;;;;5000853;28;20041;-89
2022/09/10 09:25:26;;;;;;;12.40;7.78;;;;;;;;;;5001148;28;20037;-89
2022/09/10 09:27:55;;;;;;;12.85;7.13;;;;;;;;;;5017499;28;20120;-90
2022/09/10 09:30:29;;;;;;;9.85;5.95;;;;;;;;;;5000935;28;20041;-90
2022/09/10 09:32:57;;;;;;;8.50;5.30;;;;;;;;;;5033528;28;20103;-89
2022/09/10 09:35:49;;;;;;;10.88;6.32;;;;;;;;;;5001058;28;20029;-90
2022/09/10 09:38:25;;;;;;;10.25;5.85;;;;;;;;;;5001825;28;20048;-89
2022/09/10 09:40:56;;;;;;;8.98;4.63;;;;;;;;;;5001116;28;20064;-87
2022/09/10 09:43:39;;;;;;;8.63;4.75;;;;;;;;;;5017164;28;20033;-90
2022/09/10 09:46:15;;;;;;;12.30;5.20;;;;;;;;;;5017322;28;20095;-90
2022/09/10 09:48:41;;;;;;;8.70;4.38;;;;;;;;;;4997551;28;20504;-90
2022/09/10 09:51:10;;;;;;;10.00;4.40;;;;;;;;;;4981645;28;20030;-89
2022/09/10 09:53:39;;;;;;;6.97;3.70;;;;;;;;;;4981466;28;20463;-89
2022/09/10 09:56:11;;;;;;;7.22;3.83;;;;;;;;;;4997388;28;20120;-90
2022/09/10 09:58:37;;;;;;;6.43;3.63;;;;;;;;;;4997224;28;20048;-90
2022/09/10 10:01:09;;;;;;;5.90;3.25;;;;;;;;;;4997498;28;20110;-88
2022/09/10 10:03:41;;;;;;;;;;;;;;;;;;4981447;28;20049;-89
2022/09/10 10:06:10;;;;;;;5.63;2.65;;;;;;;;;;4996639;28;20066;-89
2022/09/10 10:08:36;;;;;;;6.45;3.38;;;;;;;;;;4980638;28;20401;-88
2022/09/10 10:11:02;;;;;;;6.65;2.97;;;;;;;;;;4997179;28;20034;-88
2022/09/10 10:13:39;;;;;;;4.75;2.45;;;;;;;;;;4980615;28;20037;-88
2022/09/10 10:16:21;;;;;;;4.82;2.28;;;;;;;;;;4981215;28;20038;-89
2022/09/10 10:18:47;;;;;;;4.80;2.55;;;;;;;;;;4980389;28;20034;-89
2022/09/10 10:21:14;;;;;;;3.83;1.80;;;;;;;;;;4980294;28;20045;-89
2022/09/10 10:23:40;;;;;;;3.53;2.08;;;;;;;;;;4996813;28;20030;-89
2022/09/10 10:26:16;;;;;;;4.47;2.28;;;;;;;;;;4996637;28;20045;-88
2022/09/10 10:28:45;;;;;;;3.92;1.90;;;;;;;;;;4980587;28;20104;-89
2022/09/10 10:31:10;;;;;;;5.25;2.25;;;;;;;;;;4993517;28;20393;-88
2022/09/10 10:33:37;;;;;;;3.22;1.77;;;;;;;;;;4999999;28;20048;-88
2022/09/10 10:36:06;;;;;;;4.53;2.08;;;;;;;;;;4984136;28;20446;-88
2022/09/10 10:38:46;;;;;;;3.35;1.95;;;;;;;;;;5016057;28;20033;-88
2022/09/10 10:41:34;;;;;;;8.05;2.15;;;;;;;;;;5020406;28;20036;-88
2022/09/10 10:44:08;;;;;;;4.38;1.77;;;;;;;;;;4991964;28;20033;-90
2022/09/10 10:46:43;;;;;;;3.47;1.98;;;;;;;;;;4991061;28;20066;-91
2022/09/10 10:49:49;;;;;;;4.90;1.85;;;;;;;;;;5016946;28;20397;-89
2022/09/10 10:52:24;;;;;;;3.20;1.95;;;;;;;;;;4976379;28;20038;-88
2022/09/10 10:55:32;;;;;;;12.73;2.30;;;;;;;;;;5022484;28;20042;-86
2022/09/10 10:58:08;;;;;;;5.15;2.00;;;;;;;;;;5013534;28;20037;-88
2022/09/10 11:00:40;;;;;;;5.57;2.03;;;;;;;;;;5020960;28;20035;-87
2022/09/10 11:03:14;;;;;;;4.22;1.83;;;;;;;;;;4989768;28;20037;-88
2022/09/10 11:05:56;;;;;;;3.28;1.40;;;;;;;;;;5038628;28;20034;-90
2022/09/10 11:08:29;;;;;;;5.57;1.90;;;;;;;;;;4987624;28;20088;-88
2022/09/10 11:11:13;;;;;;;3.67;1.80;;;;;;;;;;4988927;28;20501;-86
2022/09/10 11:13:46;;;;;;;9.38;2.25;;;;;;;;;;5000363;28;20088;-92
2022/09/10 11:16:20;;;;;;;8.52;2.22;;;;;;;;;;4999994;28;20036;-90
2022/09/10 11:18:54;;;;;;;8.77;2.42;;;;;;;;;;4984045;28;20480;-93
2022/09/10 11:21:33;;;;;;;9.25;2.20;;;;;;;;;;4983942;28;20034;-94
2022/09/10 11:24:06;;;;;;;3.65;1.95;;;;;;;;;;4984871;28;20107;-94
2022/09/10 11:27:08;;;;;;;7.18;2.47;;;;;;;;;;5015736;28;20500;-92
2022/09/10 11:29:47;;;;;;;8.18;2.10;;;;;;;;;;4959074;28;20096;-93
2022/09/10 11:32:29;;;;;;;11.00;2.30;;;;;;;;;;5019608;28;20049;-96
2022/09/10 11:35:07;;;;;;;;;;;;;;;;;;5000410;28;20548;-94
2022/09/10 11:37:43;;;;;;;10.65;2.83;;;;;;;;;;5025113;28;19916;-95
2022/09/10 11:40:34;;;;;;;10.13;2.85;;;;;;;;;;5016025;28;20033;-91
2022/09/10 11:43:13;;;;;;;11.05;3.53;;;;;;;;;;5014271;28;20112;-92
2022/09/10 11:45:53;;;;;;;11.07;3.95;;;;;;;;;;4982856;28;20040;-90
2022/09/10 11:48:24;;;;;;;11.98;5.45;;;;;;;;;;4999945;28;20103;-91
2022/09/10 11:50:56;;;;;;;17.27;6.40;;;;;;;;;;4999037;28;20041;-92
2022/09/10 11:53:23;;;;;;;12.50;5.53;;;;;;;;;;4982974;28;20045;-89
2022/09/10 11:56:06;;;;;;;12.07;6.55;;;;;;;;;;4983154;28;20049;-89
2022/09/10 11:58:48;;;;;;;10.05;6.22;;;;;;;;;;4984184;28;20106;-89
2022/09/10 12:01:53;;;;;;;12.10;6.22;;;;;;;;;;5015407;28;20099;-91
2022/09/10 12:04:35;;;;;;;13.60;6.40;;;;;;;;;;5015146;28;20076;-91
2022/09/10 12:07:24;;;;;;;11.43;5.60;;;;;;;;;;4984282;28;20041;-91
2022/09/10 12:10:26;;;;;;;10.85;5.45;;;;;;;;;;5015021;28;20046;-91
2022/09/10 12:12:56;;;;;;;8.35;4.90;;;;;;;;;;5015641;28;20041;-90
2022/09/10 12:15:26;;;;;;;9.43;5.03;;;;;;;;;;4982883;28;20042;-90
2022/09/10 12:18:03;;;;;;;12.43;5.22;;;;;;;;;;4983790;28;20065;-90
2022/09/10 12:21:02;;;;;;;7.85;4.50;;;;;;;;;;4984137;28;20091;-91
2022/09/10 12:23:53;;;;;;;10.85;4.85;;;;;;;;;;5003006;28;20515;-93
2022/09/10 12:26:29;;;;;;;7.32;4.45;;;;;;;;;;4983837;28;20504;-95
2022/09/10 12:29:03;;;;;;;14.15;3.97;;;;;;;;;;4963682;28;20121;-94
2022/09/10 12:32:12;;;;;;;8.55;3.90;;;;;;;;;;4995606;28;20034;-93
2022/09/10 12:34:54;;;;;;;7.40;4.15;;;;;;;;;;5014971;28;20072;-94
2022/09/10 12:37:26;;;;;;;7.85;3.72;;;;;;;;;;5014905;28;20495;-93
2022/09/10 12:40:25;;;;;;;6.28;2.78;;;;;;;;;;4999805;28;20408;-93
2022/09/10 12:43:37;;;;;;;6.55;2.92;;;;;;;;;;5016672;28;20030;-95
2022/09/10 12:46:12;;;;;;;6.93;3.25;;;;;;;;;;5035221;28;20079;-94
2022/09/10 12:48:56;;;;;;;7.00;3.00;;;;;;;;;;5015807;28;20045;-94
2022/09/10 12:51:27;;;;;;;5.35;3.20;;;;;;;;;;5015258;28;20034;-93
2022/09/10 12:54:03;;;;;;;5.05;2.88;;;;;;;;;;5025024;28;20033;-93
2022/09/10 12:56:52;;;;;;;5.40;2.80;;;;;;;;;;5025366;28;20400;-93
2022/09/10 12:59:47;;;;;;;5.47;2.33;;;;;;;;;;5036274;28;20030;-94
2022/09/10 13:02:42;;;;;;;4.68;2.38;;;;;;;;;;5018836;28;20033;-93
2022/09/10 13:05:45;;;;;;;5.47;2.83;;;;;;;;;;5018244;28;20099;-93
2022/09/10 13:08:18;;;;;;;6.10;2.42;;;;;;;;;;5018278;28;20025;-94
2022/09/10 13:11:02;;;;;;;3.70;2.10;;;;;;;;;;5002278;28;20579;-93
2022/09/10 13:14:05;;;;;;;4.82;2.58;;;;;;;;;;5018026;28;20104;-94
2022/09/10 13:16:49;;;;;;;5.05;2.35;;;;;;;;;;5034891;28;20116;-92
2022/09/10 13:19:23;;;;;;;4.03;2.42;;;;;;;;;;5019119;28;20029;-89
2022/09/10 13:21:53;;;;;;;5.80;2.90;;;;;;;;;;5017721;28;20431;-87
2022/09/10 13:24:35;;;;;;;5.57;2.05;;;;;;;;;;5001464;28;20188;-91
2022/09/10 13:27:21;;;;;;;3.92;2.30;;;;;;;;;;5017994;28;20041;-91
2022/09/10 13:30:19;;;;;;;4.75;2.10;;;;;;;;;;5017315;28;20026;-89
2022/09/10 13:32:59;;;;;;;6.68;2.80;;;;;;;;;;5001396;28;20039;-92
2022/09/10 13:35:44;;;;;;;5.75;3.00;;;;;;;;;;5001005;28;20482;-90
2022/09/10 13:38:52;;;;;;;6.38;2.63;;;;;;;;;;5017322;28;20029;-91
2022/09/10 13:41:42;;;;;;;8.20;2.83;;;;;;;;;;5017774;28;20488;-92
2022/09/10 13:44:48;;;;;;;4.47;2.47;;;;;;;;;;5017637;28;20037;-91
2022/09/10 13:47:26;;;;;;;4.90;2.22;;;;;;;;;;5000172;28;20126;-92
2022/09/10 13:50:05;;;;;;;7.22;2.38;;;;;;;;;;4997946;28;20125;-90
2022/09/10 13:52:34;;;;;;;4.53;2.08;;;;;;;;;;4965947;28;20472;-92
2022/09/10 13:55:04;;;;;;;6.97;2.25;;;;;;;;;;4964295;28;20500;-90
2022/09/10 13:57:43;;;;;;;5.00;2.10;;;;;;;;;;4965535;28;20125;-90
2022/09/10 14:00:23;;;;;;;5.28;2.38;;;;;;;;;;4981350;28;20069;-90
2022/09/10 14:02:54;;;;;;;4.57;1.70;;;;;;;;;;4982215;28;20041;-90
2022/09/10 14:05:32;;;;;;;4.05;1.95;;;;;;;;;;4965404;28;20060;-90
2022/09/10 14:08:09;;;;;;;3.95;2.22;;;;;;;;;;4966822;28;20113;-90
2022/09/10 14:11:02;;;;;;;3.92;1.90;;;;;;;;;;4966486;28;20034;-91
2022/09/10 14:13:36;;;;;;;5.43;2.05;;;;;;;;;;5002466;28;20034;-91
2022/09/10 14:16:04;;;;;;;3.70;1.70;;;;;;;;;;5013926;28;20045;-92
2022/09/10 14:18:44;;;;;;;4.38;2.10;;;;;;;;;;4981597;28;20476;-92
2022/09/10 14:21:13;;;;;;;3.75;1.55;;;;;;;;;;4965923;28;20046;-93
2022/09/10 14:23:46;;;;;;;3.53;1.75;;;;;;;;;;4981436;28;20842;-93
2022/09/10 14:26:24;;;;;;;3.53;1.98;;;;;;;;;;4981226;28;20044;-94
2022/09/10 14:29:03;;;;;;;3.30;1.98;;;;;;;;;;4997421;28;20038;-94
2022/09/10 14:31:39;;;;;;;4.28;2.00;;;;;;;;;;4997747;28;20034;-95
2022/09/10 14:34:36;;;;;;;5.68;1.52;;;;;;;;;;4998647;28;20063;-93
2022/09/10 14:51:33;;;;;;;6.78;1.85;;;;;;;;;;4975441;28;20134;-93
2022/09/10 14:54:00;;;;;;;7.63;2.20;;;;;;;;;;5005118;28;20030;-91
2022/09/10 14:56:35;;;;;;;4.25;1.70;;;;;;;;;;4999782;28;20037;-92
2022/09/10 14:59:16;;;;;;;4.05;1.92;;;;;;;;;;5018073;28;20084;-93
2022/09/10 15:01:47;;;;;;;4.88;2.05;;;;;;;;;;5033512;28;20435;-94
2022/09/10 15:04:15;;;;;;;4.45;1.83;;;;;;;;;;5000662;28;20040;-91
2022/09/10 15:06:47;;;;;;;6.82;1.80;;;;;;;;;;4999153;28;20037;-92
2022/09/10 15:09:13;;;;;;;6.60;2.40;;;;;;;;;;4999722;28;20064;-91
2022/09/10 15:12:07;;;;;;;4.57;1.92;;;;;;;;;;4998386;28;20052;-89
2022/09/10 15:14:33;;;;;;;6.00;2.85;;;;;;;;;;4997022;28;20538;-88
2022/09/10 15:16:59;;;;;;;5.68;2.38;;;;;;;;;;5000914;28;20034;-91
2022/09/10 15:19:54;;;;;;;6.95;2.42;;;;;;;;;;5002900;28;20041;-96
2022/09/10 15:22:35;;;;;;;15.40;3.30;;;;;;;;;;5018980;28;20128;-91
2022/09/10 15:25:03;;;;;;;8.75;2.22;;;;;;;;;;4982820;28;20112;-91
2022/09/10 15:27:30;;;;;;;8.60;2.90;;;;;;;;;;4999357;28;20040;-92
2022/09/10 15:29:58;;;;;;;8.85;3.08;;;;;;;;;;4999453;28;20120;-91